| time (UTC) | temp F | wind direction | speed MPH | gust MPH | rain 1hr in | rain 24hr in | rain mn in | humidity % | barometer mb |
| 20260509214532 | 64 | 194 | 0.0 | 2.0 | 0.00 | 0.00 | 0.00 | 26 | 749.7 |
| 20260509213027 | 63 | 122 | 1.0 | 12.0 | 0.00 | 0.00 | 0.00 | 26 | 749.8 |
| 20260509211525 | 62 | 98 | 2.0 | 10.0 | 0.00 | 0.00 | 0.00 | 27 | 750.4 |
| 20260509210028 | 62 | 158 | 1.0 | 6.0 | 0.00 | 0.00 | 0.00 | 27 | 750.1 |
| 20260509204524 | 63 | 15 | 1.0 | 4.0 | 0.00 | 0.00 | 0.00 | 25 | 749.9 |
| 20260509203024 | 63 | 165 | 2.0 | 7.0 | 0.00 | 0.00 | 0.00 | 24 | 750.0 |
| 20260509201520 | 63 | 244 | 1.0 | 6.0 | 0.00 | 0.00 | 0.00 | 25 | 750.3 |
| 20260509200019 | 62 | 86 | 7.0 | 11.0 | 0.00 | 0.00 | 0.00 | 25 | 750.8 |
| 20260509194523 | 63 | 269 | 2.0 | 13.0 | 0.00 | 0.00 | 0.00 | 26 | 751.1 |
| 20260509193017 | 64 | 174 | 2.0 | 9.0 | 0.00 | 0.00 | 0.00 | 31 | 750.7 |
| 20260509191516 | 64 | 128 | 3.0 | 7.0 | 0.00 | 0.00 | 0.00 | 29 | 750.6 |
| 20260509190015 | 62 | 217 | 2.0 | 7.0 | 0.00 | 0.00 | 0.00 | 29 | 750.8 |
| 20260509184518 | 61 | 73 | 4.0 | 10.0 | 0.00 | 0.00 | 0.00 | 27 | 750.8 |
| 20260509183012 | 66 | 305 | 1.0 | 7.0 | 0.00 | 0.00 | 0.00 | 22 | 750.7 |
| 20260509181512 | 69 | 14 | 4.0 | 14.0 | 0.00 | 0.00 | 0.00 | 21 | 750.7 |
| 20260509180008 | 71 | 355 | 2.0 | 9.0 | 0.00 | 0.00 | 0.00 | 21 | 750.6 |
| 20260509174507 | 71 | 155 | 2.0 | 10.0 | 0.00 | 0.00 | 0.00 | 21 | 750.5 |
| 20260509173105 | 71 | 115 | 3.0 | 10.0 | 0.00 | 0.00 | 0.00 | 21 | 750.5 |
| 20260509171600 | 69 | 117 | 1.0 | 5.0 | 0.00 | 0.00 | 0.00 | 22 | 750.7 |
| 20260509164552 | 66 | 124 | 1.0 | 5.0 | 0.00 | 0.00 | 0.00 | 25 | 750.7 |
| 20260509163105 | 63 | 115 | 2.0 | 9.0 | 0.00 | 0.00 | 0.00 | 26 | 750.8 |
| 20260509161544 | 62 | 115 | 2.0 | 6.0 | 0.00 | 0.00 | 0.00 | 27 | 750.7 |
| 20260509160041 | 61 | 90 | 1.0 | 11.0 | 0.00 | 0.00 | 0.00 | 24 | 751.1 |
| 20260509154543 | 60 | 82 | 3.0 | 6.0 | 0.00 | 0.00 | 0.00 | 28 | 750.9 |
| 20260509153034 | 58 | 144 | 4.0 | 7.0 | 0.00 | 0.00 | 0.00 | 31 | 750.8 |
| 20260509151529 | 56 | 107 | 1.0 | 6.0 | 0.00 | 0.00 | 0.00 | 35 | 751.0 |
| 20260509150027 | 54 | 71 | 0.0 | 2.0 | 0.00 | 0.00 | 0.00 | 42 | 750.9 |
| 20260509144523 | 53 | 67 | 0.0 | 3.0 | 0.00 | 0.00 | 0.00 | 49 | 750.8 |
| 20260509143018 | 50 | 58 | 0.0 | 4.0 | 0.00 | 0.00 | 0.00 | 54 | 751.0 |
| 20260509141530 | 47 | 49 | 0.0 | 2.0 | 0.00 | 0.00 | 0.00 | 55 | 751.0 |
| 20260509140010 | 42 | 39 | 0.0 | 3.0 | 0.00 | 0.00 | 0.00 | 65 | 751.0 |
| 20260509134509 | 38 | 67 | 2.0 | 3.0 | 0.00 | 0.00 | 0.00 | 69 | 751.0 |
| 20260509133004 | 38 | 35 | 0.0 | 5.0 | 0.00 | 0.00 | 0.00 | 66 | 750.9 |
| 20260509131507 | 37 | 10 | 0.0 | 6.0 | 0.00 | 0.00 | 0.00 | 69 | 750.9 |
| 20260509130107 | 37 | 308 | 0.0 | 1.0 | 0.00 | 0.00 | 0.00 | 68 | 750.8 |
| 20260509124600 | 37 | 26 | 0.0 | 0.0 | 0.00 | 0.00 | 0.00 | 71 | 750.8 |
| 20260509123059 | 38 | 25 | 0.0 | 0.0 | 0.00 | 0.00 | 0.00 | 67 | 750.7 |
| 20260509121555 | 38 | 20 | 0.0 | 0.0 | 0.00 | 0.00 | 0.00 | 66 | 750.5 |
| 20260509120055 | 38 | 10 | 0.0 | 0.0 | 0.00 | 0.00 | 0.00 | 66 | 750.2 |
| 20260509114553 | 39 | 5 | 1.0 | 3.0 | 0.00 | 0.00 | 0.00 | 63 | 750.1 |
| 20260509113118 | 39 | 336 | 1.0 | 9.0 | 0.00 | 0.00 | 0.00 | 65 | 750.1 |
| 20260509111600 | 38 | 68 | 3.0 | 4.0 | 0.00 | 0.00 | 0.00 | 66 | 750.0 |
| 20260509110052 | 38 | 42 | 0.0 | 3.0 | 0.00 | 0.00 | 0.00 | 68 | 750.0 |
| 20260509104557 | 38 | 41 | 0.0 | 4.0 | 0.00 | 0.00 | 0.00 | 67 | 750.1 |
| 20260509103056 | 38 | 355 | 1.0 | 3.0 | 0.00 | 0.00 | 0.00 | 67 | 750.0 |
| 20260509101547 | 39 | 88 | 0.0 | 8.0 | 0.00 | 0.00 | 0.00 | 65 | 750.1 |
| 20260509100105 | 39 | 22 | 2.0 | 4.0 | 0.00 | 0.00 | 0.00 | 65 | 750.1 |
| 20260509094551 | 39 | 43 | 1.0 | 3.0 | 0.00 | 0.00 | 0.00 | 65 | 750.0 |
| 20260509093043 | 40 | 103 | 0.0 | 2.0 | 0.00 | 0.00 | 0.00 | 64 | 750.1 |
| 20260509091543 | 40 | 67 | 1.0 | 4.0 | 0.00 | 0.00 | 0.00 | 62 | 750.0 |
| 20260509090038 | 40 | 48 | 3.0 | 4.0 | 0.00 | 0.00 | 0.00 | 61 | 749.9 |
| 20260509084536 | 40 | 68 | 1.0 | 4.0 | 0.00 | 0.00 | 0.00 | 62 | 750.0 |
| 20260509083040 | 41 | 47 | 0.0 | 3.0 | 0.00 | 0.00 | 0.00 | 62 | 750.1 |
| 20260509081533 | 41 | 85 | 1.0 | 3.0 | 0.00 | 0.00 | 0.00 | 63 | 750.1 |
| 20260509080033 | 41 | 26 | 0.0 | 5.0 | 0.00 | 0.00 | 0.00 | 61 | 750.1 |
| 20260509074526 | 42 | 36 | 0.0 | 4.0 | 0.00 | 0.00 | 0.00 | 59 | 750.1 |
| 20260509073023 | 42 | 76 | 2.0 | 3.0 | 0.00 | 0.00 | 0.00 | 58 | 750.2 |
| 20260509071520 | 43 | 32 | 1.0 | 4.0 | 0.00 | 0.00 | 0.00 | 59 | 750.4 |
| 20260509070019 | 43 | 90 | 2.0 | 6.0 | 0.00 | 0.00 | 0.00 | 58 | 750.4 |
| 20260509064527 | 43 | 34 | 1.0 | 4.0 | 0.00 | 0.00 | 0.00 | 58 | 750.6 |
| 20260509063013 | 43 | 87 | 0.0 | 0.0 | 0.00 | 0.00 | 0.00 | 59 | 750.6 |
| 20260509061529 | 43 | 338 | 0.0 | 0.0 | 0.00 | 0.00 | 0.00 | 60 | 750.7 |
| 20260509060010 | 43 | 337 | 1.0 | 4.0 | 0.00 | 0.00 | 0.00 | 58 | 750.8 |
| 20260509054506 | 44 | 224 | 0.0 | 3.0 | 0.00 | 0.00 | 0.00 | 60 | 750.9 |
| 20260509053013 | 45 | 217 | 1.0 | 7.0 | 0.00 | 0.00 | 0.00 | 56 | 750.9 |
| 20260509051505 | 45 | 244 | 1.0 | 4.0 | 0.00 | 0.00 | 0.00 | 55 | 750.9 |
| 20260509050008 | 45 | 232 | 0.0 | 3.0 | 0.00 | 0.00 | 0.00 | 56 | 751.0 |
| 20260509044504 | 46 | 193 | 0.0 | 3.0 | 0.00 | 0.00 | 0.00 | 55 | 750.9 |
| 20260509043003 | 46 | 272 | 0.0 | 5.0 | 0.00 | 0.00 | 0.00 | 54 | 750.9 |
| 20260509041502 | 47 | 296 | 0.0 | 2.0 | 0.00 | 0.00 | 0.00 | 54 | 750.9 |
| 20260509040002 | 47 | 247 | 1.0 | 4.0 | 0.00 | 0.00 | 0.00 | 53 | 750.8 |
| 20260509034501 | 48 | 303 | 1.0 | 3.0 | 0.00 | 0.00 | 0.00 | 52 | 750.6 |
| 20260509033101 | 49 | 49 | 1.0 | 3.0 | 0.00 | 0.00 | 0.00 | 52 | 750.3 |
| 20260509031603 | 50 | 348 | 1.0 | 3.0 | 0.00 | 0.00 | 0.00 | 51 | 750.1 |
| 20260509024559 | 51 | 71 | 2.0 | 5.0 | 0.00 | 0.00 | 0.00 | 49 | 749.5 |
| 20260509023058 | 52 | 348 | 1.0 | 4.0 | 0.00 | 0.00 | 0.00 | 48 | 749.4 |
| 20260509021559 | 53 | 39 | 0.0 | 3.0 | 0.00 | 0.00 | 0.00 | 47 | 749.2 |
| 20260509020058 | 54 | 50 | 3.0 | 9.0 | 0.00 | 0.00 | 0.00 | 44 | 748.9 |
| 20260509014557 | 56 | 22 | 0.0 | 3.0 | 0.00 | 0.00 | 0.00 | 43 | 748.8 |
| 20260509013058 | 57 | 329 | 1.0 | 3.0 | 0.00 | 0.00 | 0.00 | 41 | 748.7 |
| 20260509011604 | 59 | 281 | 1.0 | 3.0 | 0.00 | 0.00 | 0.00 | 38 | 748.6 |
| 20260509010056 | 61 | 225 | 0.0 | 0.0 | 0.00 | 0.00 | 0.00 | 42 | 748.5 |
| 20260509004554 | 63 | 225 | 0.0 | 3.0 | 0.00 | 0.00 | 0.00 | 38 | 748.6 |
| 20260509003053 | 64 | 225 | 0.0 | 3.0 | 0.00 | 0.00 | 0.00 | 32 | 748.7 |
| 20260509001553 | 62 | 74 | 0.0 | 0.0 | 0.00 | 0.00 | 0.00 | 38 | 748.8 |
| 20260509000052 | 64 | 74 | 0.0 | 2.0 | 0.00 | 0.00 | 0.00 | 33 | 748.9 |
| 20260508234555 | 65 | 74 | 0.0 | 2.0 | 0.00 | 0.00 | 0.00 | 26 | 748.9 |
| 20260508233059 | 65 | 80 | 1.0 | 7.0 | 0.00 | 0.00 | 0.00 | 27 | 749.0 |
| 20260508231631 | 65 | 63 | 0.0 | 2.0 | 0.00 | 0.00 | 0.00 | 26 | 749.0 |
| 20260508230059 | 66 | 227 | 1.0 | 4.0 | 0.00 | 0.00 | 0.00 | 28 | 748.8 |
| 20260508224549 | 66 | 200 | 1.0 | 8.0 | 0.00 | 0.00 | 0.00 | 25 | 748.7 |
| 20260508223047 | 67 | 214 | 2.0 | 6.0 | 0.00 | 0.00 | 0.00 | 24 | 748.7 |
| 20260508221542 | 67 | 78 | 2.0 | 5.0 | 0.00 | 0.00 | 0.00 | 23 | 749.0 |
| 20260508220043 | 67 | 126 | 2.0 | 4.0 | 0.00 | 0.00 | 0.00 | 27 | 749.2 |